Terminal Aerodrome Forecast
Issued by NWS

Home | Current Version | Previous Version | Text Only | Print | Product List | Glossary On
Versions: 1 2 3 4 5 6 7 8 9 10 11 12 13 14 15 16 17 18 19 20 21
000
FTUS41 KCAR 270701 AAA
TAFFVE
TAF AMD
KFVE 270701Z 2707/2806 15012KT P6SM OVC006
     FM271000 13007KT 6SM -SHRA OVC015
     FM271600 14010KT P6SM OVC010
     FM272100 16008KT P6SM BKN060
     FM280300 21004KT P6SM BKN010=

USA.gov is the U.S. government's official web portal to all federal, state and local government web resources and services.